createdAt,value
2023-04-16T00:06:09.496Z,47.00334448160535
2023-04-16T00:12:30.781Z,48.130434782608695
2023-04-16T00:23:04.920Z,48.30100334448161
2023-04-16T00:29:26.025Z,48.625418060200666
2023-04-16T00:39:17.613Z,48.374581939799334
2023-04-16T00:45:38.690Z,46.74247491638796
2023-04-16T00:52:54.849Z,48.33444816053512
2023-04-16T00:59:15.107Z,49.591973244147155
2023-04-16T01:05:36.078Z,49.448160535117054
2023-04-16T01:11:56.792Z,50.04347826086956
2023-04-16T01:18:19.406Z,50.35451505016722
2023-04-16T01:30:17.610Z,51.94983277591973
2023-04-16T01:36:38.999Z,51.1438127090301
2023-04-16T01:57:03.894Z,51.64548494983278
2023-04-16T02:03:24.909Z,53.03010033444816
2023-04-16T02:09:45.104Z,51.986622073578594
2023-04-16T02:16:06.171Z,52.24414715719063
2023-04-16T02:22:29.022Z,52.929765886287626
2023-04-16T02:28:49.846Z,51.05685618729097
2023-04-16T02:44:29.555Z,50.7123745819398
2023-04-16T02:50:50.187Z,52.92307692307692
2023-04-16T02:57:12.058Z,51.24414715719063
2023-04-16T03:03:33.461Z,51.130434782608695
2023-04-16T03:11:53.009Z,50.34448160535117
2023-04-16T03:19:53.097Z,50.046822742474916
2023-04-16T03:27:15.037Z,50.46488294314381
2023-04-16T03:33:35.624Z,50.903010033444815
2023-04-16T03:39:59.430Z,49.37123745819398
2023-04-16T03:49:11.886Z,52.247491638795985
2023-04-16T04:05:40.757Z,53.869565217391305
2023-04-16T04:12:01.357Z,54.06020066889632
2023-04-16T04:18:22.756Z,54.17725752508361
2023-04-16T04:24:43.791Z,53.709030100334445
2023-04-16T04:31:54.213Z,53.38461538461539
2023-04-16T04:38:16.132Z,53.78260869565217
2023-04-16T04:52:00.741Z,54.30434782608695
2023-04-16T04:58:23.848Z,53.77591973244147
2023-04-16T05:04:48.076Z,52.642140468227424
2023-04-16T05:11:11.129Z,52.792642140468224
2023-04-16T05:17:34.693Z,52.68227424749164
2023-04-16T05:23:59.389Z,52.94648829431438
2023-04-16T05:30:21.346Z,52.20066889632107
2023-04-16T05:36:44.215Z,51.93311036789298
2023-04-16T05:43:08.405Z,52.063545150501675
2023-04-16T05:49:30.687Z,52.24414715719063
2023-04-16T05:55:54.857Z,50.35451505016722
2023-04-16T06:02:17.316Z,49.80602006688963
2023-04-16T06:08:40.232Z,49.61538461538461
2023-04-16T06:15:04.311Z,48.88628762541806
2023-04-16T06:21:27.183Z,49.130434782608695
2023-04-16T06:27:49.750Z,48.297658862876254
2023-04-16T06:34:13.414Z,46.98327759197324
2023-04-16T06:40:40.187Z,48.1505016722408
2023-04-16T06:47:05.068Z,48.02341137123746
2023-04-16T06:53:27.998Z,48.07357859531773
2023-04-16T07:22:45.291Z,45.77257525083612
2023-04-16T07:40:00.202Z,46.274247491638796
2023-04-16T07:46:24.997Z,48.836120401337794
2023-04-16T07:52:50.796Z,46.79598662207358
2023-04-16T07:59:22.584Z,45.81605351170568
2023-04-16T08:05:47.015Z,48.42809364548495
2023-04-16T08:12:09.885Z,46.89297658862876
2023-04-16T08:18:33.402Z,46.642140468227424
2023-04-16T08:24:55.516Z,45.280936454849495
2023-04-16T08:39:41.867Z,43.87290969899666
2023-04-16T08:46:05.333Z,42.608695652173914
2023-04-16T09:01:46.966Z,42.17056856187291
2023-04-16T09:08:09.889Z,41.17725752508361
2023-04-16T09:14:33.521Z,40.38795986622073
2023-04-16T09:20:57.041Z,40.063545150501675
2023-04-16T09:40:27.539Z,41.54849498327759
2023-04-16T09:46:49.625Z,41.11036789297659
2023-04-16T10:03:26.115Z,40.67224080267559
2023-04-16T10:12:28.027Z,39.45484949832776
2023-04-16T10:18:50.214Z,40.27759197324415
2023-04-16T10:28:23.968Z,42.20401337792642
2023-04-16T10:34:51.954Z,44.63879598662207
2023-04-16T10:41:13.619Z,42.76254180602007
2023-04-16T10:48:15.651Z,42.65886287625418
2023-04-16T11:05:56.053Z,42.381270903010034
2023-04-16T11:12:17.159Z,40.96321070234114
2023-04-16T11:23:47.629Z,40.28428093645485
2023-04-16T11:30:09.403Z,38.32107023411371
2023-04-16T11:38:51.582Z,39.77591973244147
2023-04-16T11:58:26.924Z,39.862876254180605
2023-04-16T12:04:49.574Z,39.51839464882943
2023-04-16T12:23:43.759Z,42.51505016722408
2023-04-16T12:30:56.710Z,41.103678929765884
2023-04-16T12:37:21.058Z,43.414715719063544
2023-04-16T12:43:42.767Z,45.23745819397993
2023-04-16T12:50:08.156Z,45.18394648829432
2023-04-16T12:56:34.594Z,43.709030100334445
2023-04-16T13:03:52.430Z,44.7056856187291
2023-04-16T13:10:59.993Z,45.71571906354515
2023-04-16T13:19:27.017Z,44.869565217391305
2023-04-16T13:42:27.576Z,46.49498327759197
2023-04-16T13:49:44.297Z,48.20401337792642
2023-04-16T13:56:06.079Z,47.74916387959866
2023-04-16T14:04:21.628Z,51.802675585284284
2023-04-16T14:10:43.582Z,50.93979933110368
2023-04-16T14:17:04.718Z,50.17725752508361
2023-04-16T14:23:25.976Z,51.09364548494983
2023-04-16T14:29:52.917Z,50.137123745819395
2023-04-16T14:36:14.055Z,51.30434782608695
2023-04-16T14:50:17.507Z,51.896321070234116
2023-04-16T14:56:38.317Z,50.608695652173914
2023-04-16T15:06:51.406Z,50.25418060200669
2023-04-16T15:13:12.188Z,49.51839464882943
2023-04-16T15:22:17.563Z,48.35451505016722
2023-04-16T15:33:51.448Z,48.51505016722408
2023-04-16T15:40:12.032Z,49.81605351170568
2023-04-16T15:46:33.022Z,47.22742474916388
2023-04-16T15:52:54.656Z,47.414715719063544
2023-04-16T15:59:17.402Z,47.137123745819395
2023-04-16T16:11:09.787Z,45.1505016722408
2023-04-16T16:17:31.604Z,45.31772575250836
2023-04-16T16:27:50.284Z,43.30100334448161
2023-04-16T16:37:55.152Z,41.852842809364546
2023-04-16T16:44:17.060Z,40.96655518394649
2023-04-16T16:50:39.253Z,42.25752508361204
2023-04-16T16:57:03.447Z,40.046822742474916
2023-04-16T17:03:27.310Z,42.20066889632107
2023-04-16T17:09:50.318Z,42.90635451505017
2023-04-16T17:16:12.679Z,41.68561872909699
2023-04-16T17:28:00.511Z,43.876254180602004
2023-04-16T17:38:07.682Z,39.19063545150502
2023-04-16T17:44:30.078Z,40.2675585284281
2023-04-16T17:53:28.801Z,42.35451505016722
2023-04-16T17:59:51.379Z,44.08695652173913
2023-04-16T18:06:19.026Z,44.876254180602004
2023-04-16T18:16:22.523Z,39.52173913043478
2023-04-16T18:29:51.391Z,44.74916387959866
2023-04-16T18:36:17.425Z,41.09364548494983
2023-04-16T18:42:45.050Z,40.15384615384615
2023-04-16T18:49:11.130Z,38.785953177257525
2023-04-16T18:59:00.329Z,39.03010033444816
2023-04-16T19:05:26.769Z,39.79598662207358
2023-04-16T19:13:21.092Z,42.40468227424749
2023-04-16T19:19:45.450Z,39.2675585284281
2023-04-16T19:26:07.700Z,40.8494983277592
2023-04-16T19:33:35.039Z,38.40133779264214
2023-04-16T19:39:58.440Z,39.836120401337794
2023-04-16T19:46:20.745Z,41.13377926421405
2023-04-16T19:52:51.613Z,41.852842809364546
2023-04-16T19:59:14.402Z,39.61204013377927
2023-04-16T20:05:36.178Z,40.63210702341137
2023-04-16T20:17:54.371Z,40.57859531772575
2023-04-16T20:28:02.440Z,42.096989966555185
2023-04-16T20:34:26.832Z,44.93979933110368
2023-04-16T20:46:13.528Z,46.702341137123746
2023-04-16T20:57:07.054Z,45.32107023411371
2023-04-16T21:03:30.562Z,44.8494983277592
2023-04-16T21:14:50.481Z,47.591973244147155
2023-04-16T21:21:10.250Z,45.05016722408027
2023-04-16T21:27:30.997Z,48.1438127090301
2023-04-16T21:33:51.428Z,46.635451505016725
2023-04-16T21:45:25.252Z,47.65886287625418
2023-04-16T21:51:45.333Z,47.87959866220736
2023-04-16T22:00:03.713Z,47.12040133779264
2023-04-16T22:09:09.561Z,46.73913043478261
2023-04-16T22:23:42.656Z,47.4180602006689
2023-04-16T22:32:42.346Z,49.46488294314381
2023-04-16T22:39:02.709Z,48.11371237458194
2023-04-16T22:45:24.079Z,49.09364548494983
2023-04-16T22:51:45.485Z,49.19397993311037
2023-04-16T23:00:41.926Z,49.752508361204015
2023-04-16T23:07:02.576Z,49.441471571906355
2023-04-16T23:13:53.038Z,49.42809364548495
2023-04-16T23:20:13.646Z,50.23411371237458
2023-04-16T23:30:07.893Z,49.28428093645485
2023-04-16T23:36:27.584Z,49.1505016722408
2023-04-16T23:48:23.749Z,48.448160535117054
2023-04-16T23:54:44.097Z,48.30434782608695
